• Join FlightAware (Why Join?)
  • Login
  • US Flag 
08:16PM EDT


 

Airport Tracker/Info


-or-


 

Live Flight TrackerFlight Track Log ✈ CPZ5750 ✈ 06-Nov-2013 ✈ KSTL - KMSP

Flight Track Log - Related Links

Times and Time Zones

All times are in EST time to prevent confusion due to time zone crossing. See the CPZ5750 flight status page for this flight to view local times or setup timezone preferences in your user account.

Time Position Orientation Groundspeed Altitude Reporting Facility
EST Latitude Longitude Course Direction KTS MPH feet Rate Location/Type
01:17PM 38.8144 -90.4017 343° North 176 203 3,900  Level Kansas City Center
01:18PM 39.0804 -90.5103 356° North  Level Estimated
01:18PM 38.8889 -90.4083 356° North 238 274 6,300  Level Kansas City Center
01:19PM 39.1910 -90.5574 353° North  Level Estimated
01:19PM 38.9883 -90.4172 356° North 282 325 10,300  Level Kansas City Center
01:20PM 39.3063 -90.5370 North  Level FlightAware Approximate
01:20PM 39.0742 -90.4244 356° North 296 341 12,000  Level Kansas City Center
01:21PM 39.4216 -90.5164 North  Level FlightAware Approximate
01:21PM 39.1778 -90.4339 356° North 345 397 14,100  Level Kansas City Center
01:22PM 39.2864 -90.4436 356° North 374 430 16,200 1,800 Climbing Kansas City Center
01:23PM 39.4025 -90.4542 356° North 405 466 17,900 1,680 Climbing Kansas City Center
01:24PM 39.5239 -90.4656 356° North 429 494 19,700 1,980 Climbing Kansas City Center
01:25PM 39.6683 -90.5067 348° North 441 507 22,000 1,740 Climbing Kansas City Center
01:26PM 39.7808 -90.5725 336° Northwest 435 501 23,400 1,440 Climbing Kansas City Center
01:27PM 39.8953 -90.6394 336° Northwest 445 512 25,000 1,500 Climbing Kansas City Center
01:28PM 40.0117 -90.7078 336° Northwest 452 520 26,600 1,320 Climbing Kansas City Center
01:29PM 40.1300 -90.7772 336° Northwest 458 527 27,800 1,140 Climbing Kansas City Center
01:30PM 40.2497 -90.8475 336° Northwest 463 533 29,000 1,020 Climbing Kansas City Center
01:31PM 40.3700 -90.9189 336° Northwest 469 540 30,000 480 Climbing Kansas City Center
01:32PM 40.5183 -91.0069 336° Northwest 478 550 30,000  Level Kansas City Center
01:33PM 40.6203 -91.0675 336° Northwest 490 564 30,000  Level Chicago Center
01:34PM 40.7686 -91.1572 335° Northwest 487 560 30,000  Level Chicago Center
01:35PM 40.8931 -91.2328 335° Northwest 490 564 30,000  Level Chicago Center
01:36PM 41.0186 -91.3086 336° Northwest 494 568 30,000  Level Chicago Center
01:38PM 41.1439 -91.3850 335° Northwest 493 567 30,000  Level Chicago Center
01:39PM 41.2706 -91.4617 336° Northwest 492 566 30,000  Level Chicago Center
01:40PM 41.3950 -91.5389 335° Northwest 494 568 30,000 -60 Level Chicago Center
01:41PM 41.5394 -91.6311 334° Northwest 487 560 29,900 -360 Descending Chicago Center
01:42PM 41.6542 -91.7156 331° Northwest 476 548 29,300 -660 Descending Chicago Center
01:43PM 41.7675 -91.7975 332° Northwest 468 539 28,600 -660 Descending Chicago Center
01:44PM 41.8794 -91.8822 331° Northwest 463 533 28,000 -300 Descending Chicago Center
01:45PM 41.9911 -91.9661 331° Northwest 462 532 28,000  Level Chicago Center
01:46PM 42.1022 -92.0511 330° Northwest 461 531 28,000  Level Chicago Center
01:47PM 42.2358 -92.1514 331° Northwest 458 527 28,000  Level Chicago Center
01:48PM 42.3442 -92.2333 331° Northwest 453 521 28,000  Level Chicago Center
01:49PM 42.4528 -92.3183 330° Northwest 449 517 28,000  Level Chicago Center
01:50PM 42.5622 -92.4047 330° Northwest 453 521 28,000  Level Chicago Center
01:51PM 42.6661 -92.5000 326° Northwest 451 519 28,000  Level Chicago Center
01:52PM 42.7883 -92.6117 326° Northwest 445 512 28,000  Level Chicago Center
01:53PM 42.8903 -92.7069 326° Northwest 445 512 28,000  Level Minneapolis Center
01:54PM 42.9914 -92.8000 326° Northwest 442 509 28,000  Level Minneapolis Center
01:55PM 43.1106 -92.8603 340° North 456 525 28,000  Level Minneapolis Center
01:56PM 43.2308 -92.9156 341° North 458 527 28,000 -60 Level Minneapolis Center
01:57PM 43.3533 -92.9664 343° North 460 529 27,900 -1,560 Descending Minneapolis Center
01:58PM 43.5025 -93.0097 348° North 460 529 24,800 -2,760 Descending Minneapolis Center
01:59PM 43.6178 -93.0417 349° North 437 503 22,300 -2,400 Descending Minneapolis Center
02:00PM 43.7258 -93.0744 348° North 412 474 19,900 -2,280 Descending Minneapolis Center
02:01PM 43.8344 -93.1044 349° North 389 448 17,600 -2,220 Descending Minneapolis Center
02:02PM 43.9328 -93.1333 348° North 370 426 15,400 -2,100 Descending Minneapolis Center
02:03PM 44.0247 -93.1600 348° North 349 402 13,300 -1,980 Descending Minneapolis Center
02:04PM 44.1131 -93.1872 348° North 327 376 11,400 -1,620 Descending Minneapolis Center
02:05PM 44.2119 -93.2161 348° North 301 346 10,000 -720 Descending Minneapolis Center
02:06PM 44.2858 -93.2164 360° North 271 312 10,000 -420 Level Minneapolis Center
02:07PM 44.3606 -93.2025 North 271 312 9,200 -1,080 Descending Minneapolis Center
02:09PM 44.4306 -93.1847 10° North 258 297 7,800 -1,080 Descending Minneapolis Center
02:10PM 44.4967 -93.1686 10° North 245 282 7,000 -420 Descending Minneapolis Center
02:11PM 44.5644 -93.1583 North 246 283 7,000 -420 Level Minneapolis Center
02:12PM 44.6175 -93.1728 349° North 197 227 6,200 -1,020 Descending Minneapolis Center
02:13PM 44.6756 -93.1878 350° North 179 206 4,900 -1,080 Descending Minneapolis Center
02:14PM 44.7181 -93.1986 350° North 160 184 4,000 -840 Descending Minneapolis Center
02:15PM 44.7572 -93.2086 350° North 151 174 3,200 -900 Descending Minneapolis Center
02:16PM 44.8042 -93.2206 350° North 148 170 2,200 -840 Descending Minneapolis Center
02:17PM 44.8389 -93.2297 349° North 132 152 1,500 -720 Descending Minneapolis Center